Terminal Aerodrome Forecast
Issued by NWS

Home | Current Version | Previous Version | Text Only | Print | Product List | Glossary On
Versions: 1 2 3 4 5 6 7 8 9 10 11 12 13 14 15 16 17 18 19 20 21 22
000
FTUS43 KOAX 271210 CCA
TAFSNY
TAF COR
KSNY 271210Z 2712/2812 02005KT 4SM BR OVC022
     FM271600 05008KT P6SM SCT015 BKN025
     FM271900 04008KT P6SM SCT030 BKN050=

USA.gov is the U.S. government's official web portal to all federal, state and local government web resources and services.